Time;durP1;ratioP1;P1;durP2;ratioP2;P2;SDS_P1;SDS_P2;PMS_P1;PMS_P2;Temp;Humidity;BMP_temperature;BMP_pressure;BME280_temperature;BME280_humidity;BME280_pressure;Samples;Min_cycle;Max_cycle;Signal;HPM_P1;HPM_P2
2023/02/18 00:00:31;;;;;;;9.00;2.60;;;7.30;99.90;;;;;;5070233;28;20282;-74
2023/02/18 00:02:59;;;;;;;13.25;4.70;;;7.40;99.90;;;;;;5073080;28;20273;-75
2023/02/18 00:05:28;;;;;;;12.23;2.10;;;7.30;99.90;;;;;;5068221;28;20252;-75
2023/02/18 00:07:55;;;;;;;20.40;3.67;;;7.20;99.90;;;;;;5073357;28;20281;-75
2023/02/18 00:10:22;;;;;;;9.80;2.50;;;7.30;99.90;;;;;;5066986;28;20198;-76
2023/02/18 00:12:49;;;;;;;8.77;2.85;;;7.30;99.90;;;;;;5056401;28;20313;-75
2023/02/18 00:15:16;;;;;;;8.20;2.38;;;7.30;99.90;;;;;;5071350;28;20723;-75
2023/02/18 00:17:43;;;;;;;15.68;3.10;;;7.40;99.90;;;;;;5068500;28;20723;-75
2023/02/18 00:20:12;;;;;;;15.10;2.25;;;7.40;99.90;;;;;;5077138;28;20191;-76
2023/02/18 00:22:39;;;;;;;19.45;3.00;;;7.40;99.90;;;;;;5070861;28;20203;-75
2023/02/18 00:25:07;;;;;;;9.90;2.58;;;7.40;99.90;;;;;;5063917;28;20198;-76
2023/02/18 00:27:34;;;;;;;8.07;2.88;;;7.40;99.90;;;;;;5066286;28;20230;-76
2023/02/18 00:30:02;;;;;;;13.95;4.10;;;7.40;99.90;;;;;;5071421;28;20234;-76
2023/02/18 00:32:29;;;;;;;10.40;2.40;;;7.50;99.90;;;;;;5070592;28;20329;-74
2023/02/18 00:34:56;;;;;;;4.63;1.77;;;7.50;99.90;;;;;;5070217;28;20618;-75
2023/02/18 00:37:25;;;;;;;38.05;23.25;;;7.50;99.90;;;;;;5071402;28;20632;-75
2023/02/18 00:39:52;;;;;;;28.65;15.77;;;7.50;99.90;;;;;;5066675;28;20254;-76
2023/02/18 00:42:18;;;;;;;9.02;2.90;;;7.60;99.90;;;;;;5061967;28;20598;-76
2023/02/18 00:44:51;;;;;;;47.30;30.92;;;7.60;99.90;;;;;;5063887;28;20199;-77
2023/02/18 00:47:19;;;;;;;11.60;2.38;;;7.70;99.90;;;;;;5063702;28;20200;-76
2023/02/18 00:49:47;;;;;;;17.63;6.80;;;7.70;99.90;;;;;;5066908;28;20225;-76
2023/02/18 00:52:14;;;;;;;20.25;10.82;;;7.70;99.90;;;;;;5063510;28;20223;-75
2023/02/18 00:54:43;;;;;;;9.38;4.00;;;7.80;99.90;;;;;;5071456;28;20537;-74
2023/02/18 00:57:10;;;;;;;90.25;64.20;;;7.80;99.90;;;;;;5065909;28;20586;-75
2023/02/18 00:59:43;;;;;;;9.07;5.95;;;8.00;99.90;;;;;;5070281;28;20281;-75
2023/02/18 01:02:10;;;;;;;12.95;3.70;;;7.90;99.90;;;;;;5063129;28;20694;-76
2023/02/18 01:04:38;;;;;;;11.15;3.10;;;7.90;99.90;;;;;;5067188;28;20254;-75
2023/02/18 01:07:05;;;;;;;17.42;3.35;;;7.90;99.90;;;;;;5071076;28;20258;-76
2023/02/18 01:09:32;;;;;;;13.68;2.70;;;8.00;99.90;;;;;;5077026;28;20194;-75
2023/02/18 01:12:00;;;;;;;16.08;7.28;;;8.10;99.90;;;;;;5075436;28;20629;-75
2023/02/18 01:14:28;;;;;;;13.40;5.45;;;8.10;99.90;;;;;;5068326;28;20241;-76
2023/02/18 01:16:55;;;;;;;12.82;3.55;;;8.10;99.90;;;;;;5072435;28;20215;-75
2023/02/18 01:19:24;;;;;;;13.90;4.15;;;8.10;99.90;;;;;;5068396;28;20214;-75
2023/02/18 01:21:51;;;;;;;8.85;3.95;;;8.10;99.90;;;;;;5075624;28;20269;-75
2023/02/18 01:24:18;;;;;;;8.57;1.80;;;8.00;99.90;;;;;;5058861;28;20302;-75
2023/02/18 01:26:45;;;;;;;13.68;4.82;;;8.00;99.90;;;;;;5062112;28;20238;-75
2023/02/18 01:29:13;;;;;;;10.98;3.97;;;8.00;99.90;;;;;;5059697;28;20286;-76
2023/02/18 01:31:40;;;;;;;11.60;2.95;;;8.10;99.90;;;;;;5069212;28;20227;-74
2023/02/18 01:34:08;;;;;;;7.88;2.47;;;8.20;99.90;;;;;;5078715;28;20222;-76
2023/02/18 01:36:35;;;;;;;14.85;2.63;;;8.10;99.90;;;;;;5064460;28;20669;-74
2023/02/18 01:39:02;;;;;;;11.27;2.55;;;8.10;99.90;;;;;;5070576;28;20200;-75
2023/02/18 01:41:29;;;;;;;14.80;2.72;;;8.10;99.90;;;;;;5065869;28;20317;-75
2023/02/18 01:44:13;;;;;;;8.82;2.35;;;8.10;99.90;;;;;;5064393;28;20202;-75
2023/02/18 01:46:41;;;;;;;13.70;2.72;;;8.10;99.90;;;;;;5075477;28;20290;-75
2023/02/18 01:49:08;;;;;;;8.45;2.83;;;8.00;99.90;;;;;;5065879;28;20207;-75
2023/02/18 01:51:39;;;;;;;13.48;4.55;;;8.10;99.90;;;;;;5063625;28;20577;-74
2023/02/18 01:54:09;;;;;;;19.90;4.10;;;8.10;99.90;;;;;;5066476;28;20248;-75
2023/02/18 01:56:42;;;;;;;10.48;3.28;;;8.00;99.90;;;;;;5073543;28;20287;-76
2023/02/18 01:59:14;;;;;;;9.90;2.92;;;8.00;99.90;;;;;;5063661;28;20645;-75
2023/02/18 02:01:43;;;;;;;6.63;1.70;;;8.00;99.90;;;;;;5069829;28;20278;-75
2023/02/18 02:04:10;;;;;;;9.88;2.60;;;8.00;99.90;;;;;;5064505;28;20229;-77
2023/02/18 02:06:37;;;;;;;10.40;2.40;;;8.00;99.90;;;;;;5070380;28;20234;-76
2023/02/18 02:09:07;;;;;;;11.50;3.05;;;8.10;99.90;;;;;;5076356;28;20195;-75
2023/02/18 02:12:02;;;;;;;13.57;3.25;;;8.10;99.90;;;;;;5069815;28;20694;-76
2023/02/18 02:15:01;;;;;;;8.88;2.97;;;8.10;99.90;;;;;;5063708;28;20298;-75
2023/02/18 02:17:43;;;;;;;11.25;2.33;;;8.20;99.90;;;;;;5063507;28;20258;-76
2023/02/18 02:21:03;;;;;;;9.98;2.85;;;8.20;99.90;;;;;;5063180;28;20226;-75
2023/02/18 02:24:00;;;;;;;10.75;2.80;;;8.20;99.90;;;;;;5066933;28;20222;-76
2023/02/18 02:26:55;;;;;;;6.70;1.80;;;8.20;99.90;;;;;;5069559;28;20238;-76
2023/02/18 02:29:53;;;;;;;14.15;2.63;;;8.20;99.90;;;;;;5064249;28;20238;-76
2023/02/18 02:33:07;;;;;;;14.88;3.08;;;8.20;99.90;;;;;;5072888;28;20223;-75
2023/02/18 02:35:41;;;;;;;12.45;3.05;;;8.20;99.90;;;;;;5072197;28;20237;-76
2023/02/18 02:38:16;;;;;;;8.00;1.98;;;8.20;99.90;;;;;;5061230;28;20250;-75
2023/02/18 02:40:51;;;;;;;6.72;1.77;;;8.20;99.90;;;;;;5073999;28;20253;-75
2023/02/18 02:43:28;;;;;;;9.70;2.83;;;8.20;99.90;;;;;;5079138;28;20219;-73
2023/02/18 02:46:01;;;;;;;13.32;2.25;;;8.20;99.90;;;;;;5069441;28;20246;-76
2023/02/18 02:48:35;;;;;;;9.65;2.45;;;8.20;99.90;;;;;;5078163;28;20203;-74
2023/02/18 02:51:10;;;;;;;17.35;2.50;;;8.30;99.90;;;;;;5073992;28;20223;-74
2023/02/18 02:53:40;;;;;;;4.18;1.70;;;8.30;99.90;;;;;;5071352;28;20672;-75
2023/02/18 02:56:15;;;;;;;10.73;4.82;;;8.30;99.90;;;;;;5062686;28;20202;-75
2023/02/18 02:58:43;;;;;;;20.92;3.88;;;8.30;99.90;;;;;;5062772;28;20306;-75
2023/02/18 03:01:32;;;;;;;7.32;2.30;;;8.30;99.90;;;;;;5060558;28;20222;-74
2023/02/18 03:04:28;;;;;;;7.68;2.33;;;8.30;99.90;;;;;;5069721;28;20228;-75
2023/02/18 03:07:34;;;;;;;14.40;1.83;;;8.30;99.90;;;;;;5058991;28;20207;-76
2023/02/18 03:10:17;;;;;;;12.43;2.38;;;8.30;99.90;;;;;;5060166;28;20563;-75
2023/02/18 03:12:54;;;;;;;8.13;2.63;;;8.40;99.90;;;;;;5060761;28;20218;-75
2023/02/18 03:15:24;;;;;;;13.65;3.00;;;8.30;99.90;;;;;;5058316;28;20239;-75
2023/02/18 03:17:58;;;;;;;10.38;2.88;;;8.30;99.90;;;;;;5064154;28;20264;-75
2023/02/18 03:20:29;;;;;;;9.15;1.88;;;8.40;99.90;;;;;;5065761;28;20974;-76
2023/02/18 03:23:05;;;;;;;13.00;3.63;;;8.30;99.90;;;;;;5067972;28;20215;-74
2023/02/18 03:25:35;;;;;;;7.72;2.63;;;8.40;99.90;;;;;;5069385;28;20662;-75
2023/02/18 03:28:12;;;;;;;12.60;2.90;;;8.40;99.90;;;;;;5067420;28;20560;-75
2023/02/18 03:30:44;;;;;;;9.35;2.20;;;8.40;99.90;;;;;;5061563;28;20226;-75
2023/02/18 03:33:25;;;;;;;19.35;3.33;;;8.40;99.90;;;;;;5067851;28;20236;-74
2023/02/18 03:35:54;;;;;;;15.40;4.38;;;8.40;99.90;;;;;;5072576;28;20605;-75
2023/02/18 03:38:26;;;;;;;17.15;2.00;;;8.40;99.90;;;;;;5073782;28;20268;-76
2023/02/18 03:41:00;;;;;;;12.25;3.83;;;8.40;99.90;;;;;;5067407;28;20314;-73
2023/02/18 03:43:27;;;;;;;14.40;2.13;;;8.50;99.90;;;;;;5065532;28;20646;-74
2023/02/18 03:45:54;;;;;;;5.20;1.70;;;8.50;99.90;;;;;;5068249;28;20204;-74
2023/02/18 03:48:21;;;;;;;10.93;2.55;;;8.50;99.90;;;;;;5070341;28;20234;-74
2023/02/18 03:50:48;;;;;;;13.57;2.85;;;8.50;99.90;;;;;;5071938;28;20310;-76
2023/02/18 03:53:15;;;;;;;10.55;2.00;;;8.50;99.90;;;;;;5078758;28;20610;-75
2023/02/18 03:55:43;;;;;;;6.40;2.00;;;8.50;99.90;;;;;;5072207;28;20699;-73
2023/02/18 03:58:11;;;;;;;16.50;3.47;;;8.50;99.90;;;;;;5064248;28;20259;-76
2023/02/18 04:00:39;;;;;;;9.02;2.10;;;8.50;99.90;;;;;;5057806;28;20643;-75
2023/02/18 04:03:06;;;;;;;9.60;2.40;;;8.50;99.90;;;;;;5063049;28;20198;-75
2023/02/18 04:05:34;;;;;;;13.90;4.30;;;8.50;99.90;;;;;;5056938;28;20601;-75
2023/02/18 04:08:01;;;;;;;9.48;3.05;;;8.50;99.90;;;;;;5063667;28;20187;-75
2023/02/18 04:10:29;;;;;;;7.82;2.03;;;8.50;99.90;;;;;;5056379;28;20235;-75
2023/02/18 04:12:56;;;;;;;8.35;2.30;;;8.50;99.90;;;;;;5059170;28;20720;-75
2023/02/18 04:15:24;;;;;;;12.13;3.58;;;8.50;99.90;;;;;;5072333;28;20293;-75
2023/02/18 04:17:51;;;;;;;10.93;2.67;;;8.50;99.90;;;;;;5067285;28;20222;-76
2023/02/18 04:20:21;;;;;;;10.60;5.78;;;8.50;99.90;;;;;;5071004;28;20264;-76
2023/02/18 04:22:48;;;;;;;5.72;3.08;;;8.50;99.90;;;;;;5057246;28;20196;-74
2023/02/18 04:25:15;;;;;;;9.38;3.03;;;8.50;99.90;;;;;;5072849;28;20286;-77
2023/02/18 04:27:42;;;;;;;13.60;2.30;;;8.40;99.90;;;;;;5071165;28;20226;-74
2023/02/18 04:30:11;;;;;;;13.90;2.80;;;8.40;99.90;;;;;;5070319;28;20198;-75
2023/02/18 04:32:39;;;;;;;11.52;2.65;;;8.30;99.90;;;;;;5073275;28;20236;-74
2023/02/18 04:35:07;;;;;;;8.00;2.33;;;8.40;99.90;;;;;;5066585;28;20282;-74
2023/02/18 04:37:34;;;;;;;13.55;3.53;;;8.30;99.90;;;;;;5065488;28;20256;-74
2023/02/18 04:40:00;;;;;;;10.63;3.30;;;8.20;99.90;;;;;;5063341;28;20288;-74
2023/02/18 04:42:27;;;;;;;12.90;2.58;;;8.20;99.90;;;;;;5066989;28;20313;-73
2023/02/18 04:44:55;;;;;;;8.15;2.05;;;8.10;99.90;;;;;;5066650;28;20225;-75
2023/02/18 04:47:22;;;;;;;8.82;2.90;;;8.20;99.90;;;;;;5061449;28;20253;-76
2023/02/18 04:49:51;;;;;;;24.23;3.10;;;8.20;99.90;;;;;;5063491;28;20203;-74
2023/02/18 04:52:18;;;;;;;8.05;1.98;;;8.20;99.90;;;;;;5062400;28;20237;-75
2023/02/18 04:54:46;;;;;;;8.60;2.92;;;8.10;99.90;;;;;;5061892;28;20202;-75
2023/02/18 04:57:13;;;;;;;10.13;2.42;;;8.10;99.90;;;;;;5075128;28;20752;-76
2023/02/18 04:59:41;;;;;;;6.90;2.30;;;8.10;99.90;;;;;;5067337;28;20229;-75
2023/02/18 05:02:08;;;;;;;8.82;2.05;;;8.00;99.90;;;;;;5074769;28;20233;-75
2023/02/18 05:04:35;;;;;;;12.02;2.67;;;8.00;99.90;;;;;;5076304;28;20226;-75
2023/02/18 05:07:03;;;;;;;16.70;2.83;;;8.00;99.90;;;;;;5075612;28;20202;-76
2023/02/18 05:09:30;;;;;;;10.13;3.20;;;8.00;99.90;;;;;;5076177;28;20294;-76
2023/02/18 05:11:57;;;;;;;7.50;3.03;;;7.90;99.90;;;;;;5072278;28;20257;-75
2023/02/18 05:14:24;;;;;;;15.50;2.40;;;7.90;99.90;;;;;;5062368;28;20293;-75
2023/02/18 05:16:51;;;;;;;10.48;2.70;;;7.90;99.90;;;;;;5075893;28;20233;-75
2023/02/18 05:19:18;;;;;;;9.32;2.58;;;7.90;99.90;;;;;;5072462;28;20297;-75
2023/02/18 05:21:45;;;;;;;19.10;4.05;;;7.80;99.90;;;;;;5070920;28;20314;-74
2023/02/18 05:24:14;;;;;;;12.07;2.38;;;7.90;99.90;;;;;;5083214;28;20201;-74
2023/02/18 05:26:42;;;;;;;13.27;2.65;;;7.80;99.90;;;;;;5088160;28;20568;-75
2023/02/18 05:29:09;;;;;;;10.65;2.60;;;7.80;99.90;;;;;;5091882;28;20195;-74
2023/02/18 05:31:37;;;;;;;7.05;3.38;;;7.70;99.90;;;;;;5083245;28;20697;-75
2023/02/18 05:34:04;;;;;;;6.80;2.17;;;7.70;99.90;;;;;;5064611;28;20253;-75
2023/02/18 05:36:31;;;;;;;8.00;1.92;;;7.70;99.90;;;;;;5060865;28;20596;-74
2023/02/18 05:38:58;;;;;;;9.48;3.00;;;7.70;99.90;;;;;;5058650;28;20239;-74
2023/02/18 05:41:27;;;;;;;13.45;3.20;;;7.80;99.90;;;;;;5071700;28;20247;-75
2023/02/18 05:46:38;;;;;;;11.15;3.00;;;7.80;99.90;;;;;;5064923;28;20714;-76
2023/02/18 05:49:05;;;;;;;12.25;3.53;;;7.90;99.90;;;;;;5063411;28;20281;-75
2023/02/18 05:51:32;;;;;;;10.23;3.03;;;7.90;99.90;;;;;;5070175;28;20665;-75
2023/02/18 05:53:59;;;;;;;9.50;2.92;;;7.90;99.90;;;;;;5061544;28;20218;-76
2023/02/18 05:56:27;;;;;;;13.48;3.25;;;7.90;99.90;;;;;;5066026;28;20242;-76
2023/02/18 05:58:54;;;;;;;7.82;2.55;;;8.00;99.90;;;;;;5064490;28;20306;-75
2023/02/18 06:01:21;;;;;;;18.45;2.67;;;8.10;99.90;;;;;;5068580;28;20233;-75
2023/02/18 06:03:48;;;;;;;12.35;3.70;;;8.20;99.90;;;;;;5071132;28;20202;-76
2023/02/18 06:06:15;;;;;;;15.65;3.58;;;8.20;99.90;;;;;;5064637;28;20223;-75
2023/02/18 06:08:45;;;;;;;9.27;3.20;;;8.20;99.90;;;;;;5070654;28;20274;-74
2023/02/18 06:11:11;;;;;;;11.73;3.45;;;8.30;99.90;;;;;;5065121;28;20222;-75
2023/02/18 06:13:40;;;;;;;6.95;2.80;;;8.20;99.90;;;;;;5068411;28;20210;-75
2023/02/18 06:16:07;;;;;;;14.80;4.00;;;8.30;99.90;;;;;;5069967;28;20221;-75
2023/02/18 06:18:36;;;;;;;13.90;4.35;;;8.20;99.90;;;;;;5059571;28;20210;-75
2023/02/18 06:21:03;;;;;;;12.57;4.93;;;8.20;99.90;;;;;;5067490;28;20253;-76
2023/02/18 06:23:30;;;;;;;16.23;5.03;;;8.10;99.90;;;;;;5066975;28;20207;-75
2023/02/18 06:25:57;;;;;;;8.55;4.55;;;8.20;99.90;;;;;;5063358;28;20709;-75
2023/02/18 06:28:24;;;;;;;13.18;4.65;;;8.30;99.90;;;;;;5057929;28;20292;-75
2023/02/18 06:30:53;;;;;;;15.02;5.20;;;8.20;99.90;;;;;;5065926;28;20275;-76
2023/02/18 06:33:20;;;;;;;14.82;5.65;;;8.20;99.90;;;;;;5068713;28;20199;-75
2023/02/18 06:35:54;;;;;;;15.60;5.47;;;8.30;99.90;;;;;;5066017;28;20261;-76
2023/02/18 06:38:21;;;;;;;14.30;5.35;;;8.20;99.90;;;;;;5074030;28;20206;-76
2023/02/18 06:40:48;;;;;;;17.60;6.38;;;8.30;99.90;;;;;;5060709;28;20259;-75
2023/02/18 06:43:15;;;;;;;14.52;5.68;;;8.30;99.90;;;;;;5067304;28;20195;-77
2023/02/18 06:45:43;;;;;;;9.85;5.50;;;8.20;99.90;;;;;;5063108;28;20210;-75
2023/02/18 06:48:11;;;;;;;12.23;6.75;;;8.20;99.90;;;;;;5066153;28;20207;-76
2023/02/18 06:50:38;;;;;;;12.32;6.47;;;8.20;99.90;;;;;;5061773;28;20731;-75
2023/02/18 06:53:05;;;;;;;10.77;5.80;;;8.20;99.90;;;;;;5065929;28;20380;-74
2023/02/18 06:55:32;;;;;;;22.55;6.97;;;8.10;99.90;;;;;;5069562;28;20637;-74
2023/02/18 06:57:59;;;;;;;16.42;7.47;;;8.10;99.90;;;;;;5067589;28;20243;-73
2023/02/18 07:00:26;;;;;;;13.07;6.10;;;8.10;99.90;;;;;;5060235;28;20344;-74
2023/02/18 07:02:53;;;;;;;18.15;6.78;;;8.00;99.90;;;;;;5059695;28;20195;-75
2023/02/18 07:05:21;;;;;;;22.77;7.47;;;8.00;99.90;;;;;;5061832;28;20730;-74
2023/02/18 07:07:49;;;;;;;17.70;7.28;;;8.00;99.90;;;;;;5063196;28;20630;-74
2023/02/18 07:10:16;;;;;;;13.55;9.27;;;8.00;99.90;;;;;;5060025;28;20210;-77
2023/02/18 07:12:44;;;;;;;18.08;9.95;;;8.00;99.90;;;;;;5064309;28;20294;-76
2023/02/18 07:15:11;;;;;;;16.15;8.40;;;8.00;99.90;;;;;;5069444;28;20191;-75
2023/02/18 07:17:38;;;;;;;14.10;9.70;;;8.10;99.90;;;;;;5066189;28;21522;-78
2023/02/18 07:20:06;;;;;;;19.83;10.63;;;8.00;99.90;;;;;;5061844;28;20569;-74
2023/02/18 07:22:34;;;;;;;10.85;9.52;;;8.00;99.90;;;;;;5066741;28;20272;-76
2023/02/18 07:25:02;;;;;;;17.08;9.52;;;8.00;99.90;;;;;;5069127;28;20297;-74
2023/02/18 07:27:29;;;;;;;15.82;9.52;;;8.00;99.90;;;;;;5061738;28;20210;-75
2023/02/18 07:29:56;;;;;;;20.38;11.05;;;8.00;99.90;;;;;;5070497;28;20260;-74
2023/02/18 07:32:23;;;;;;;11.07;8.05;;;8.00;99.90;;;;;;5073682;28;20311;-76
2023/02/18 07:34:52;;;;;;;13.98;8.85;;;8.00;99.90;;;;;;5055080;28;20199;-77
2023/02/18 07:37:19;;;;;;;13.35;9.77;;;8.00;99.90;;;;;;5064969;28;20203;-77
2023/02/18 07:39:47;;;;;;;16.27;10.50;;;8.20;99.90;;;;;;5061332;28;20223;-75
2023/02/18 07:42:14;;;;;;;15.18;9.82;;;8.20;99.90;;;;;;5066718;28;20226;-77
2023/02/18 07:44:42;;;;;;;21.63;11.77;;;8.20;99.90;;;;;;5065819;28;20290;-78
2023/02/18 07:47:12;;;;;;;13.30;10.25;;;8.20;99.90;;;;;;5065800;28;20297;-72
2023/02/18 07:49:39;;;;;;;19.73;12.52;;;8.30;99.90;;;;;;5059888;28;20279;-73
2023/02/18 07:52:06;;;;;;;21.05;12.15;;;8.30;99.90;;;;;;5065363;28;20254;-73
2023/02/18 07:54:33;;;;;;;19.17;11.63;;;8.40;99.90;;;;;;5057599;28;20285;-75
2023/02/18 07:57:01;;;;;;;18.17;13.05;;;8.40;99.90;;;;;;5062964;28;20289;-78
2023/02/18 07:59:28;;;;;;;22.40;13.90;;;8.50;99.90;;;;;;5064355;28;20247;-74
2023/02/18 08:01:55;;;;;;;21.48;14.57;;;8.60;99.90;;;;;;5058661;28;20215;-71
2023/02/18 08:04:22;;;;;;;27.27;15.35;;;8.80;99.90;;;;;;5063429;28;20214;-74
2023/02/18 08:06:50;;;;;;;30.30;17.35;;;8.90;99.90;;;;;;5069635;28;20647;-72
2023/02/18 08:09:18;;;;;;;39.83;18.88;;;8.80;99.90;;;;;;5063729;28;20206;-74
2023/02/18 08:11:45;;;;;;;34.05;18.77;;;8.90;99.90;;;;;;5060928;28;20258;-74
2023/02/18 08:14:14;;;;;;;42.92;20.17;;;9.00;99.90;;;;;;5064293;28;20230;-72
2023/02/18 08:16:40;;;;;;;31.98;19.17;;;9.10;99.90;;;;;;5062234;28;20211;-72
2023/02/18 08:19:07;;;;;;;39.10;20.58;;;9.20;99.90;;;;;;5061066;28;20394;-74
2023/02/18 08:21:35;;;;;;;52.75;22.60;;;9.30;99.90;;;;;;5062301;28;20685;-73
2023/02/18 08:24:02;;;;;;;40.72;20.67;;;9.30;99.90;;;;;;5060763;28;20283;-75
2023/02/18 08:26:29;;;;;;;34.60;19.85;;;9.30;99.90;;;;;;5063642;28;20548;-76
2023/02/18 08:28:58;;;;;;;41.80;20.35;;;9.40;99.90;;;;;;5067644;28;20226;-73
2023/02/18 08:31:28;;;;;;;36.88;18.00;;;9.50;99.90;;;;;;5065666;28;20250;-77
2023/02/18 08:33:58;;;;;;;37.50;17.85;;;9.60;99.90;;;;;;5065630;28;20199;-77
2023/02/18 08:36:25;;;;;;;35.28;16.02;;;9.70;99.90;;;;;;5056296;28;20269;-76
2023/02/18 08:38:53;;;;;;;35.00;18.85;;;9.70;99.90;;;;;;5058127;28;20234;-76
2023/02/18 08:41:25;;;;;;;37.40;16.13;;;9.80;99.90;;;;;;5058930;28;20731;-76
2023/02/18 08:43:52;;;;;;;34.00;15.40;;;9.80;99.90;;;;;;5057546;28;20285;-75
2023/02/18 08:46:19;;;;;;;25.73;14.48;;;9.90;99.90;;;;;;5065774;28;20202;-78
2023/02/18 08:48:48;;;;;;;24.83;13.35;;;10.00;99.90;;;;;;5061312;28;20235;-69
2023/02/18 08:51:17;;;;;;;22.48;12.05;;;10.00;99.90;;;;;;5055473;28;21016;-69
2023/02/18 08:53:45;;;;;;;21.98;12.13;;;10.20;99.90;;;;;;5067629;28;20232;-69
2023/02/18 08:56:14;;;;;;;24.48;12.20;;;10.30;99.90;;;;;;5061404;28;20237;-69
2023/02/18 08:58:42;;;;;;;19.83;11.02;;;10.40;99.90;;;;;;5071168;28;20239;-69
2023/02/18 09:01:11;;;;;;;16.50;9.48;;;10.50;99.90;;;;;;5066399;28;21819;-70
2023/02/18 09:03:38;;;;;;;18.67;9.25;;;10.40;99.90;;;;;;5069007;22;20227;-83
2023/02/18 09:06:07;;;;;;;18.65;8.70;;;10.50;99.90;;;;;;5053922;28;20245;-83
2023/02/18 09:08:34;;;;;;;15.32;8.55;;;10.50;99.90;;;;;;5043026;28;20701;-84
2023/02/18 09:11:04;;;;;;;13.73;8.73;;;10.50;99.90;;;;;;5046227;28;20194;-81
2023/02/18 09:13:32;;;;;;;14.07;8.02;;;10.50;99.90;;;;;;5040485;28;20200;-84
2023/02/18 09:16:01;;;;;;;13.82;9.13;;;10.50;99.90;;;;;;5048082;28;20656;-81
2023/02/18 09:18:28;;;;;;;12.50;7.35;;;10.60;99.90;;;;;;5033764;28;20860;-84
2023/02/18 09:20:59;;;;;;;14.93;7.82;;;10.60;99.90;;;;;;5057305;28;20216;-83
2023/02/18 09:23:30;;;;;;;10.00;7.45;;;10.60;99.90;;;;;;5051541;28;20220;-82
2023/02/18 09:25:58;;;;;;;8.38;6.45;;;10.60;99.90;;;;;;5052727;28;20220;-83
2023/02/18 09:28:25;;;;;;;12.68;7.50;;;10.60;99.90;;;;;;5044217;28;20291;-84
2023/02/18 09:30:52;;;;;;;10.65;7.93;;;10.70;99.90;;;;;;5043809;28;20214;-83
2023/02/18 09:33:20;;;;;;;9.07;6.93;;;10.70;99.90;;;;;;5056744;28;20193;-84
2023/02/18 09:35:47;;;;;;;10.07;7.05;;;10.70;99.90;;;;;;5057392;28;20227;-84
2023/02/18 09:38:17;;;;;;;9.18;6.82;;;10.70;99.90;;;;;;5058328;28;20192;-83
2023/02/18 09:40:50;;;;;;;8.27;7.38;;;10.70;99.90;;;;;;5060711;28;20201;-81
2023/02/18 09:43:27;;;;;;;8.10;5.55;;;10.70;99.90;;;;;;5060204;28;20232;-82
2023/02/18 09:45:54;;;;;;;10.38;7.32;;;10.70;99.90;;;;;;5060113;28;20240;-82
2023/02/18 09:48:27;;;;;;;6.47;5.75;;;10.70;99.90;;;;;;5059841;28;20246;-84
2023/02/18 09:50:55;;;;;;;8.63;5.82;;;10.70;99.90;;;;;;5054583;28;20185;-84
2023/02/18 09:53:23;;;;;;;7.30;5.82;;;10.70;99.90;;;;;;5055715;28;20206;-84
2023/02/18 09:55:53;;;;;;;7.05;6.35;;;10.70;99.90;;;;;;5067975;28;20203;-83
2023/02/18 09:58:23;;;;;;;7.22;6.03;;;10.70;99.90;;;;;;5049134;28;20238;-83
2023/02/18 10:00:54;;;;;;;8.20;7.03;;;10.70;99.90;;;;;;5050611;28;20212;-83
2023/02/18 10:03:23;;;;;;;6.50;5.90;;;10.70;99.90;;;;;;5057526;28;20271;-84
2023/02/18 10:05:58;;;;;;;8.73;6.60;;;10.70;99.90;;;;;;5053417;28;20292;-83
2023/02/18 10:08:27;;;;;;;7.47;5.55;;;10.70;99.90;;;;;;5042171;28;20280;-83
2023/02/18 10:10:56;;;;;;;7.13;5.38;;;10.70;99.90;;;;;;5037200;28;20242;-84
2023/02/18 10:13:25;;;;;;;6.45;5.13;;;10.70;99.90;;;;;;5061372;28;20292;-84
2023/02/18 10:15:52;;;;;;;9.15;5.85;;;10.80;99.90;;;;;;5057418;28;20240;-84
2023/02/18 10:18:30;;;;;;;8.55;6.70;;;10.70;99.90;;;;;;5062766;28;20200;-83
2023/02/18 10:21:07;;;;;;;9.23;6.45;;;10.70;99.90;;;;;;5047863;28;20240;-83
2023/02/18 10:23:36;;;;;;;6.53;5.53;;;10.70;99.90;;;;;;5066391;28;20220;-84
2023/02/18 10:26:09;;;;;;;7.05;5.22;;;10.70;99.90;;;;;;5062459;28;20218;-84
2023/02/18 10:28:37;;;;;;;11.48;5.97;;;10.80;99.90;;;;;;5048076;28;20202;-84
2023/02/18 10:31:09;;;;;;;9.18;7.13;;;10.80;99.90;;;;;;5048277;28;20247;-84
2023/02/18 10:33:43;;;;;;;9.30;6.60;;;10.80;99.90;;;;;;5059067;28;20693;-84
2023/02/18 10:36:24;;;;;;;10.85;6.65;;;10.70;99.90;;;;;;5055646;28;20284;-83
2023/02/18 10:39:10;;;;;;;8.38;4.97;;;10.80;99.90;;;;;;5049446;28;20330;-83
2023/02/18 10:41:46;;;;;;;6.85;4.90;;;10.70;99.90;;;;;;5061065;28;20244;-83
2023/02/18 10:44:23;;;;;;;12.02;7.00;;;10.70;99.90;;;;;;5068610;28;20181;-85
2023/02/18 10:47:00;;;;;;;9.88;6.05;;;10.70;99.90;;;;;;5062730;28;20237;-84
2023/02/18 10:49:41;;;;;;;10.27;6.60;;;10.70;99.90;;;;;;5036863;28;20479;-85
2023/02/18 10:52:16;;;;;;;6.38;5.70;;;10.70;99.90;;;;;;5056068;28;20220;-84
2023/02/18 10:54:52;;;;;;;8.82;7.63;;;10.70;99.90;;;;;;5055357;28;20197;-85
2023/02/18 10:57:32;;;;;;;7.05;4.95;;;10.70;99.90;;;;;;5057846;28;20213;-84
2023/02/18 11:00:09;;;;;;;9.10;5.80;;;10.80;99.90;;;;;;5049893;28;20237;-85
2023/02/18 11:02:36;;;;;;;6.90;5.05;;;10.70;99.90;;;;;;5054124;28;20212;-81
2023/02/18 11:05:17;;;;;;;6.03;4.75;;;10.70;99.90;;;;;;5053846;28;20200;-86
2023/02/18 11:07:48;;;;;;;5.85;3.80;;;10.70;99.90;;;;;;5054419;28;20268;-84
2023/02/18 11:10:18;;;;;;;8.88;4.18;;;10.70;99.90;;;;;;5061907;28;20195;-84
2023/02/18 11:12:50;;;;;;;4.93;3.03;;;10.70;99.90;;;;;;5056989;28;20178;-83
2023/02/18 11:15:20;;;;;;;5.40;4.32;;;10.70;99.90;;;;;;5055988;28;20209;-84
2023/02/18 11:17:48;;;;;;;14.82;12.32;;;10.70;99.90;;;;;;5055703;28;20249;-83
2023/02/18 11:20:26;;;;;;;4.30;3.72;;;10.70;99.90;;;;;;5052965;28;20286;-85
2023/02/18 11:22:58;;;;;;;5.55;4.22;;;10.70;99.90;;;;;;5054683;28;20209;-84
2023/02/18 11:25:27;;;;;;;6.97;4.75;;;10.70;99.90;;;;;;5044310;28;20201;-85
2023/02/18 11:27:59;;;;;;;5.05;4.55;;;10.70;99.90;;;;;;5044176;28;20664;-83
2023/02/18 11:30:31;;;;;;;4.13;3.55;;;10.70;99.90;;;;;;5038428;28;20674;-85
2023/02/18 11:33:04;;;;;;;7.18;4.13;;;10.70;99.90;;;;;;5048735;28;20211;-84
2023/02/18 11:35:33;;;;;;;5.30;3.75;;;10.70;99.90;;;;;;5052321;28;20211;-83
2023/02/18 11:38:02;;;;;;;3.80;3.28;;;10.60;99.90;;;;;;5045158;28;20248;-84
2023/02/18 11:40:31;;;;;;;4.95;2.95;;;10.60;99.90;;;;;;5039133;28;20272;-84
2023/02/18 11:43:13;;;;;;;9.20;7.72;;;10.70;99.90;;;;;;5049865;28;20204;-84
2023/02/18 11:45:40;;;;;;;5.72;5.13;;;10.60;99.90;;;;;;5038042;28;20225;-85
2023/02/18 11:51:02;;;;;;;3.65;3.35;;;10.70;99.90;;;;;;5049623;28;20202;-84
2023/02/18 11:53:31;;;;;;;6.32;3.28;;;10.70;99.90;;;;;;5046064;28;20242;-84
2023/02/18 11:56:01;;;;;;;3.60;3.28;;;10.70;99.90;;;;;;5051869;28;20231;-85
2023/02/18 11:58:38;;;;;;;4.85;3.22;;;10.70;99.90;;;;;;5052477;28;20199;-85
2023/02/18 12:01:12;;;;;;;3.40;3.10;;;10.70;99.90;;;;;;5050057;28;20223;-88
2023/02/18 12:03:45;;;;;;;3.38;3.08;;;10.60;99.90;;;;;;5049711;28;20227;-87
2023/02/18 12:06:15;;;;;;;4.97;2.95;;;10.70;99.90;;;;;;5045802;28;20244;-86
2023/02/18 12:08:51;;;;;;;2.97;2.75;;;10.70;99.90;;;;;;5045957;28;20200;-86
2023/02/18 12:11:34;;;;;;;4.35;2.60;;;10.70;99.90;;;;;;5043741;28;20301;-85
2023/02/18 12:21:05;;;;;;;6.18;3.13;;;10.70;99.90;;;;;;5059551;28;20222;-88
2023/02/18 12:27:20;;;;;;;5.80;4.50;;;10.80;99.90;;;;;;5017256;23;20288;-77
2023/02/18 12:30:19;;;;;;;5.10;3.95;;;10.80;99.90;;;;;;5031307;28;20200;-76
2023/02/18 12:32:53;;;;;;;9.98;4.75;;;10.80;99.90;;;;;;5031343;28;20256;-76
2023/02/18 12:35:36;;;;;;;9.43;4.85;;;10.80;99.90;;;;;;5024377;28;20230;-76
2023/02/18 12:38:30;;;;;;;9.23;4.70;;;10.70;99.90;;;;;;5013533;28;20236;-76
2023/02/18 12:41:30;;;;;;;9.73;4.22;;;10.80;99.90;;;;;;5006173;28;20306;-76
2023/02/18 12:44:06;;;;;;;5.68;3.97;;;10.80;99.90;;;;;;5007628;28;20631;-75
2023/02/18 12:46:49;;;;;;;7.22;4.18;;;10.80;99.90;;;;;;5010350;28;20193;-75
2023/02/18 12:49:43;;;;;;;7.07;4.80;;;10.70;99.90;;;;;;5003749;28;20201;-75
2023/02/18 12:52:26;;;;;;;9.73;4.07;;;10.70;99.90;;;;;;5020700;28;20204;-75
2023/02/18 12:55:28;;;;;;;7.18;4.75;;;10.70;99.90;;;;;;5013309;28;20285;-78
2023/02/18 12:58:13;;;;;;;8.77;4.35;;;10.70;99.90;;;;;;5014031;28;20212;-75
2023/02/18 13:00:59;;;;;;;5.75;3.90;;;10.70;99.90;;;;;;5015132;28;20217;-76
2023/02/18 13:04:05;;;;;;;6.75;3.67;;;10.70;99.90;;;;;;5016702;28;20235;-75
2023/02/18 13:06:48;;;;;;;7.65;4.30;;;10.70;99.90;;;;;;5016220;28;20197;-77
2023/02/18 13:09:26;;;;;;;10.75;4.60;;;10.80;99.90;;;;;;5016777;28;20201;-76
2023/02/18 13:11:59;;;;;;;12.52;6.18;;;10.80;99.90;;;;;;5016456;28;20628;-75
2023/02/18 13:14:31;;;;;;;7.13;4.70;;;10.80;99.90;;;;;;5016844;28;20350;-75
2023/02/18 13:17:02;;;;;;;10.20;4.35;;;10.90;99.90;;;;;;5019490;28;20542;-76
2023/02/18 13:19:36;;;;;;;10.07;5.18;;;10.90;99.90;;;;;;5018326;28;20202;-76
2023/02/18 13:22:06;;;;;;;8.50;4.43;;;10.90;99.90;;;;;;5018223;28;20219;-74